sensor_id;sensor_type;location;lat;lon;timestamp;P1;durP1;ratioP1;P2;durP2;ratioP2
5157;SDS011;2598;52.364;9.772;2024-03-02T00:00:08;10.47;;;4.97;;
5157;SDS011;2598;52.364;9.772;2024-03-02T00:02:40;10.40;;;4.70;;
5157;SDS011;2598;52.364;9.772;2024-03-02T00:05:06;11.67;;;5.70;;
5157;SDS011;2598;52.364;9.772;2024-03-02T00:07:32;11.60;;;6.43;;
5157;SDS011;2598;52.364;9.772;2024-03-02T00:09:59;11.53;;;5.20;;
5157;SDS011;2598;52.364;9.772;2024-03-02T00:12:25;9.30;;;4.70;;
5157;SDS011;2598;52.364;9.772;2024-03-02T00:14:51;13.57;;;6.40;;
5157;SDS011;2598;52.364;9.772;2024-03-02T00:17:21;9.80;;;5.00;;
5157;SDS011;2598;52.364;9.772;2024-03-02T00:19:50;9.57;;;5.27;;
5157;SDS011;2598;52.364;9.772;2024-03-02T00:22:17;12.80;;;5.70;;
5157;SDS011;2598;52.364;9.772;2024-03-02T00:24:43;10.50;;;5.60;;
5157;SDS011;2598;52.364;9.772;2024-03-02T00:27:09;12.03;;;6.40;;
5157;SDS011;2598;52.364;9.772;2024-03-02T00:29:39;13.37;;;6.60;;
5157;SDS011;2598;52.364;9.772;2024-03-02T00:32:10;14.80;;;6.40;;
5157;SDS011;2598;52.364;9.772;2024-03-02T00:34:38;14.03;;;6.27;;
5157;SDS011;2598;52.364;9.772;2024-03-02T00:37:04;12.13;;;6.10;;
5157;SDS011;2598;52.364;9.772;2024-03-02T00:39:30;13.23;;;6.00;;
5157;SDS011;2598;52.364;9.772;2024-03-02T00:41:55;15.87;;;6.13;;
5157;SDS011;2598;52.364;9.772;2024-03-02T00:44:22;12.77;;;6.50;;
5157;SDS011;2598;52.364;9.772;2024-03-02T00:46:49;14.50;;;6.60;;
5157;SDS011;2598;52.364;9.772;2024-03-02T00:49:20;11.77;;;6.90;;
5157;SDS011;2598;52.364;9.772;2024-03-02T00:51:47;13.27;;;6.60;;
5157;SDS011;2598;52.364;9.772;2024-03-02T00:54:26;13.13;;;6.27;;
5157;SDS011;2598;52.364;9.772;2024-03-02T00:56:53;12.67;;;6.10;;
5157;SDS011;2598;52.364;9.772;2024-03-02T00:59:20;11.77;;;6.00;;
5157;SDS011;2598;52.364;9.772;2024-03-02T01:01:47;12.27;;;6.53;;
5157;SDS011;2598;52.364;9.772;2024-03-02T01:04:14;11.40;;;5.87;;
5157;SDS011;2598;52.364;9.772;2024-03-02T01:06:40;17.30;;;6.30;;
5157;SDS011;2598;52.364;9.772;2024-03-02T01:09:06;14.10;;;6.43;;
5157;SDS011;2598;52.364;9.772;2024-03-02T01:11:32;13.03;;;6.47;;
5157;SDS011;2598;52.364;9.772;2024-03-02T01:13:58;14.50;;;6.60;;
5157;SDS011;2598;52.364;9.772;2024-03-02T01:16:24;13.17;;;6.27;;
5157;SDS011;2598;52.364;9.772;2024-03-02T01:18:50;12.90;;;6.13;;
5157;SDS011;2598;52.364;9.772;2024-03-02T01:21:16;10.37;;;6.13;;
5157;SDS011;2598;52.364;9.772;2024-03-02T01:23:42;15.03;;;7.23;;
5157;SDS011;2598;52.364;9.772;2024-03-02T01:26:08;12.77;;;6.87;;
5157;SDS011;2598;52.364;9.772;2024-03-02T01:28:34;13.40;;;7.00;;
5157;SDS011;2598;52.364;9.772;2024-03-02T01:31:00;17.17;;;7.73;;
5157;SDS011;2598;52.364;9.772;2024-03-02T01:33:27;13.80;;;7.57;;
5157;SDS011;2598;52.364;9.772;2024-03-02T01:35:53;13.63;;;7.53;;
5157;SDS011;2598;52.364;9.772;2024-03-02T01:38:19;17.13;;;7.73;;
5157;SDS011;2598;52.364;9.772;2024-03-02T01:40:45;14.33;;;6.80;;
5157;SDS011;2598;52.364;9.772;2024-03-02T01:43:11;17.20;;;7.47;;
5157;SDS011;2598;52.364;9.772;2024-03-02T01:45:37;14.00;;;7.47;;
5157;SDS011;2598;52.364;9.772;2024-03-02T01:48:04;22.33;;;7.17;;
5157;SDS011;2598;52.364;9.772;2024-03-02T01:50:31;17.33;;;7.17;;
5157;SDS011;2598;52.364;9.772;2024-03-02T01:52:57;13.80;;;7.70;;
5157;SDS011;2598;52.364;9.772;2024-03-02T01:55:23;16.70;;;7.60;;
5157;SDS011;2598;52.364;9.772;2024-03-02T01:57:50;12.60;;;7.00;;
5157;SDS011;2598;52.364;9.772;2024-03-02T02:00:17;15.93;;;7.30;;
5157;SDS011;2598;52.364;9.772;2024-03-02T02:02:43;15.37;;;6.87;;
5157;SDS011;2598;52.364;9.772;2024-03-02T02:05:09;15.27;;;7.30;;
5157;SDS011;2598;52.364;9.772;2024-03-02T02:07:35;14.00;;;7.60;;
5157;SDS011;2598;52.364;9.772;2024-03-02T02:10:01;16.60;;;8.67;;
5157;SDS011;2598;52.364;9.772;2024-03-02T02:12:27;15.50;;;7.63;;
5157;SDS011;2598;52.364;9.772;2024-03-02T02:14:53;12.47;;;7.07;;
5157;SDS011;2598;52.364;9.772;2024-03-02T02:17:19;16.43;;;7.33;;
5157;SDS011;2598;52.364;9.772;2024-03-02T02:19:45;17.83;;;8.47;;
5157;SDS011;2598;52.364;9.772;2024-03-02T02:22:11;16.70;;;7.60;;
5157;SDS011;2598;52.364;9.772;2024-03-02T02:24:40;18.13;;;7.77;;
5157;SDS011;2598;52.364;9.772;2024-03-02T02:27:07;15.10;;;8.00;;
5157;SDS011;2598;52.364;9.772;2024-03-02T02:29:33;22.60;;;8.70;;
5157;SDS011;2598;52.364;9.772;2024-03-02T02:31:59;18.63;;;8.47;;
5157;SDS011;2598;52.364;9.772;2024-03-02T02:34:25;19.93;;;8.87;;
5157;SDS011;2598;52.364;9.772;2024-03-02T02:36:51;15.43;;;7.60;;
5157;SDS011;2598;52.364;9.772;2024-03-02T02:39:17;22.70;;;8.73;;
5157;SDS011;2598;52.364;9.772;2024-03-02T02:41:44;15.20;;;7.73;;
5157;SDS011;2598;52.364;9.772;2024-03-02T02:44:10;19.67;;;9.33;;
5157;SDS011;2598;52.364;9.772;2024-03-02T02:46:39;16.70;;;8.07;;
5157;SDS011;2598;52.364;9.772;2024-03-02T02:49:05;16.70;;;7.40;;
5157;SDS011;2598;52.364;9.772;2024-03-02T02:51:31;18.00;;;8.67;;
5157;SDS011;2598;52.364;9.772;2024-03-02T02:53:57;18.87;;;8.47;;
5157;SDS011;2598;52.364;9.772;2024-03-02T02:56:23;17.43;;;8.10;;
5157;SDS011;2598;52.364;9.772;2024-03-02T02:58:49;19.63;;;8.77;;
5157;SDS011;2598;52.364;9.772;2024-03-02T03:01:15;19.00;;;7.90;;
5157;SDS011;2598;52.364;9.772;2024-03-02T03:03:45;20.30;;;7.63;;
5157;SDS011;2598;52.364;9.772;2024-03-02T03:06:11;17.70;;;8.57;;
5157;SDS011;2598;52.364;9.772;2024-03-02T03:08:37;15.70;;;8.57;;
5157;SDS011;2598;52.364;9.772;2024-03-02T03:11:03;18.40;;;8.03;;
5157;SDS011;2598;52.364;9.772;2024-03-02T03:13:30;15.20;;;7.30;;
5157;SDS011;2598;52.364;9.772;2024-03-02T03:15:56;15.47;;;7.70;;
5157;SDS011;2598;52.364;9.772;2024-03-02T03:18:22;16.37;;;7.37;;
5157;SDS011;2598;52.364;9.772;2024-03-02T03:20:48;14.13;;;7.67;;
5157;SDS011;2598;52.364;9.772;2024-03-02T03:23:14;15.10;;;7.90;;
5157;SDS011;2598;52.364;9.772;2024-03-02T03:25:41;15.40;;;8.07;;
5157;SDS011;2598;52.364;9.772;2024-03-02T03:28:07;18.70;;;8.37;;
5157;SDS011;2598;52.364;9.772;2024-03-02T03:30:35;14.70;;;7.17;;
5157;SDS011;2598;52.364;9.772;2024-03-02T03:33:01;19.13;;;8.33;;
5157;SDS011;2598;52.364;9.772;2024-03-02T03:35:27;16.37;;;7.17;;
5157;SDS011;2598;52.364;9.772;2024-03-02T03:37:53;19.50;;;7.80;;
5157;SDS011;2598;52.364;9.772;2024-03-02T03:40:19;13.10;;;6.80;;
5157;SDS011;2598;52.364;9.772;2024-03-02T03:42:45;15.93;;;7.73;;
5157;SDS011;2598;52.364;9.772;2024-03-02T03:45:11;21.13;;;8.00;;
5157;SDS011;2598;52.364;9.772;2024-03-02T03:47:37;15.47;;;7.73;;
5157;SDS011;2598;52.364;9.772;2024-03-02T03:50:03;17.20;;;8.03;;
5157;SDS011;2598;52.364;9.772;2024-03-02T03:52:32;18.60;;;7.57;;
5157;SDS011;2598;52.364;9.772;2024-03-02T03:54:58;19.50;;;8.10;;
5157;SDS011;2598;52.364;9.772;2024-03-02T03:57:24;17.77;;;8.63;;
5157;SDS011;2598;52.364;9.772;2024-03-02T03:59:50;16.50;;;7.87;;
5157;SDS011;2598;52.364;9.772;2024-03-02T04:02:16;14.30;;;7.80;;
5157;SDS011;2598;52.364;9.772;2024-03-02T04:04:42;17.57;;;7.33;;
5157;SDS011;2598;52.364;9.772;2024-03-02T04:07:08;17.03;;;7.37;;
5157;SDS011;2598;52.364;9.772;2024-03-02T04:09:34;14.73;;;7.00;;
5157;SDS011;2598;52.364;9.772;2024-03-02T04:12:00;18.43;;;8.37;;
5157;SDS011;2598;52.364;9.772;2024-03-02T04:14:26;16.13;;;7.50;;
5157;SDS011;2598;52.364;9.772;2024-03-02T04:16:52;16.40;;;7.30;;
5157;SDS011;2598;52.364;9.772;2024-03-02T04:19:18;14.30;;;7.27;;
5157;SDS011;2598;52.364;9.772;2024-03-02T04:21:44;15.20;;;6.83;;
5157;SDS011;2598;52.364;9.772;2024-03-02T04:24:10;16.47;;;8.37;;
5157;SDS011;2598;52.364;9.772;2024-03-02T04:26:36;15.13;;;7.37;;
5157;SDS011;2598;52.364;9.772;2024-03-02T04:29:01;18.90;;;7.80;;
5157;SDS011;2598;52.364;9.772;2024-03-02T04:31:27;14.27;;;7.47;;
5157;SDS011;2598;52.364;9.772;2024-03-02T04:33:53;15.43;;;7.20;;
5157;SDS011;2598;52.364;9.772;2024-03-02T04:36:19;15.27;;;7.63;;
5157;SDS011;2598;52.364;9.772;2024-03-02T04:38:46;15.67;;;7.20;;
5157;SDS011;2598;52.364;9.772;2024-03-02T04:41:12;21.47;;;7.10;;
5157;SDS011;2598;52.364;9.772;2024-03-02T04:43:38;17.00;;;7.20;;
5157;SDS011;2598;52.364;9.772;2024-03-02T04:46:04;17.03;;;7.50;;
5157;SDS011;2598;52.364;9.772;2024-03-02T04:48:31;16.73;;;8.03;;
5157;SDS011;2598;52.364;9.772;2024-03-02T04:50:57;15.87;;;7.23;;
5157;SDS011;2598;52.364;9.772;2024-03-02T04:53:23;15.53;;;7.20;;
5157;SDS011;2598;52.364;9.772;2024-03-02T04:55:50;14.00;;;7.00;;
5157;SDS011;2598;52.364;9.772;2024-03-02T04:58:19;14.87;;;6.80;;
5157;SDS011;2598;52.364;9.772;2024-03-02T05:00:45;17.03;;;6.37;;
5157;SDS011;2598;52.364;9.772;2024-03-02T05:03:11;15.70;;;7.50;;
5157;SDS011;2598;52.364;9.772;2024-03-02T05:05:38;19.37;;;7.63;;
5157;SDS011;2598;52.364;9.772;2024-03-02T05:08:04;13.37;;;7.33;;
5157;SDS011;2598;52.364;9.772;2024-03-02T05:10:30;15.33;;;7.97;;
5157;SDS011;2598;52.364;9.772;2024-03-02T05:12:56;17.27;;;8.00;;
5157;SDS011;2598;52.364;9.772;2024-03-02T05:15:24;16.70;;;7.77;;
5157;SDS011;2598;52.364;9.772;2024-03-02T05:17:50;18.70;;;9.40;;
5157;SDS011;2598;52.364;9.772;2024-03-02T05:20:16;17.83;;;8.17;;
5157;SDS011;2598;52.364;9.772;2024-03-02T05:22:42;15.97;;;7.53;;
5157;SDS011;2598;52.364;9.772;2024-03-02T05:25:08;15.20;;;8.13;;
5157;SDS011;2598;52.364;9.772;2024-03-02T05:27:37;16.30;;;7.97;;
5157;SDS011;2598;52.364;9.772;2024-03-02T05:30:03;19.40;;;9.33;;
5157;SDS011;2598;52.364;9.772;2024-03-02T05:32:31;19.93;;;9.23;;
5157;SDS011;2598;52.364;9.772;2024-03-02T05:34:57;20.60;;;9.20;;
5157;SDS011;2598;52.364;9.772;2024-03-02T05:37:23;22.73;;;9.47;;
5157;SDS011;2598;52.364;9.772;2024-03-02T05:39:49;20.13;;;8.53;;
5157;SDS011;2598;52.364;9.772;2024-03-02T05:42:15;17.23;;;8.57;;
5157;SDS011;2598;52.364;9.772;2024-03-02T05:44:41;20.67;;;8.67;;
5157;SDS011;2598;52.364;9.772;2024-03-02T05:47:07;20.00;;;8.93;;
5157;SDS011;2598;52.364;9.772;2024-03-02T05:49:34;18.90;;;9.20;;
5157;SDS011;2598;52.364;9.772;2024-03-02T05:52:00;23.73;;;9.10;;
5157;SDS011;2598;52.364;9.772;2024-03-02T05:54:26;17.60;;;8.53;;
5157;SDS011;2598;52.364;9.772;2024-03-02T05:56:52;24.00;;;9.00;;
5157;SDS011;2598;52.364;9.772;2024-03-02T05:59:17;19.40;;;9.37;;
5157;SDS011;2598;52.364;9.772;2024-03-02T06:01:44;15.13;;;8.43;;
5157;SDS011;2598;52.364;9.772;2024-03-02T06:04:11;18.03;;;8.53;;
5157;SDS011;2598;52.364;9.772;2024-03-02T06:06:37;18.50;;;9.17;;
5157;SDS011;2598;52.364;9.772;2024-03-02T06:09:04;24.17;;;9.73;;
5157;SDS011;2598;52.364;9.772;2024-03-02T06:11:36;20.13;;;8.13;;
5157;SDS011;2598;52.364;9.772;2024-03-02T06:14:05;24.00;;;9.77;;
5157;SDS011;2598;52.364;9.772;2024-03-02T06:16:32;18.20;;;9.10;;
5157;SDS011;2598;52.364;9.772;2024-03-02T06:18:58;17.00;;;8.70;;
5157;SDS011;2598;52.364;9.772;2024-03-02T06:21:24;20.17;;;8.80;;
5157;SDS011;2598;52.364;9.772;2024-03-02T06:23:50;23.47;;;9.67;;
5157;SDS011;2598;52.364;9.772;2024-03-02T06:26:16;18.57;;;9.00;;
5157;SDS011;2598;52.364;9.772;2024-03-02T06:28:43;22.33;;;11.30;;
5157;SDS011;2598;52.364;9.772;2024-03-02T06:31:09;22.03;;;9.93;;
5157;SDS011;2598;52.364;9.772;2024-03-02T06:33:35;22.80;;;10.70;;
5157;SDS011;2598;52.364;9.772;2024-03-02T06:36:01;32.17;;;14.13;;
5157;SDS011;2598;52.364;9.772;2024-03-02T06:38:27;26.37;;;11.63;;
5157;SDS011;2598;52.364;9.772;2024-03-02T06:40:53;20.90;;;9.60;;
5157;SDS011;2598;52.364;9.772;2024-03-02T06:43:20;20.70;;;9.80;;
5157;SDS011;2598;52.364;9.772;2024-03-02T06:45:49;20.40;;;10.10;;
5157;SDS011;2598;52.364;9.772;2024-03-02T06:48:16;20.33;;;9.70;;
5157;SDS011;2598;52.364;9.772;2024-03-02T06:50:45;22.73;;;9.87;;
5157;SDS011;2598;52.364;9.772;2024-03-02T06:53:11;18.50;;;10.27;;
5157;SDS011;2598;52.364;9.772;2024-03-02T06:55:37;22.00;;;9.47;;
5157;SDS011;2598;52.364;9.772;2024-03-02T06:58:03;20.07;;;9.77;;
5157;SDS011;2598;52.364;9.772;2024-03-02T07:00:29;22.33;;;10.40;;
5157;SDS011;2598;52.364;9.772;2024-03-02T07:02:55;20.40;;;9.30;;
5157;SDS011;2598;52.364;9.772;2024-03-02T07:05:21;22.30;;;9.87;;
5157;SDS011;2598;52.364;9.772;2024-03-02T07:07:47;24.10;;;9.70;;
5157;SDS011;2598;52.364;9.772;2024-03-02T07:10:13;24.97;;;9.73;;
5157;SDS011;2598;52.364;9.772;2024-03-02T07:12:39;16.50;;;8.30;;
5157;SDS011;2598;52.364;9.772;2024-03-02T07:15:05;20.70;;;10.33;;
5157;SDS011;2598;52.364;9.772;2024-03-02T07:17:31;18.27;;;9.57;;
5157;SDS011;2598;52.364;9.772;2024-03-02T07:19:57;18.90;;;9.33;;
5157;SDS011;2598;52.364;9.772;2024-03-02T07:22:23;20.27;;;9.07;;
5157;SDS011;2598;52.364;9.772;2024-03-02T07:24:50;17.20;;;9.50;;
5157;SDS011;2598;52.364;9.772;2024-03-02T07:27:16;19.77;;;9.80;;
5157;SDS011;2598;52.364;9.772;2024-03-02T07:29:43;19.17;;;9.57;;
5157;SDS011;2598;52.364;9.772;2024-03-02T07:32:09;17.20;;;8.83;;
5157;SDS011;2598;52.364;9.772;2024-03-02T07:34:36;19.43;;;9.27;;
5157;SDS011;2598;52.364;9.772;2024-03-02T07:37:02;18.67;;;8.50;;
5157;SDS011;2598;52.364;9.772;2024-03-02T07:39:28;18.47;;;9.47;;
5157;SDS011;2598;52.364;9.772;2024-03-02T07:41:54;20.57;;;9.90;;
5157;SDS011;2598;52.364;9.772;2024-03-02T07:44:20;18.50;;;9.67;;
5157;SDS011;2598;52.364;9.772;2024-03-02T07:46:47;23.77;;;10.43;;
5157;SDS011;2598;52.364;9.772;2024-03-02T07:49:16;19.37;;;8.93;;
5157;SDS011;2598;52.364;9.772;2024-03-02T07:51:42;20.73;;;9.83;;
5157;SDS011;2598;52.364;9.772;2024-03-02T07:54:08;22.60;;;9.70;;
5157;SDS011;2598;52.364;9.772;2024-03-02T07:56:34;20.47;;;9.10;;
5157;SDS011;2598;52.364;9.772;2024-03-02T07:59:01;18.37;;;9.03;;
5157;SDS011;2598;52.364;9.772;2024-03-02T08:01:27;21.10;;;9.80;;
5157;SDS011;2598;52.364;9.772;2024-03-02T08:03:57;19.60;;;9.67;;
5157;SDS011;2598;52.364;9.772;2024-03-02T08:06:24;18.97;;;8.93;;
5157;SDS011;2598;52.364;9.772;2024-03-02T08:08:52;20.60;;;9.10;;
5157;SDS011;2598;52.364;9.772;2024-03-02T08:11:19;17.53;;;9.47;;
5157;SDS011;2598;52.364;9.772;2024-03-02T08:13:44;24.80;;;10.60;;
5157;SDS011;2598;52.364;9.772;2024-03-02T08:16:10;20.47;;;8.97;;
5157;SDS011;2598;52.364;9.772;2024-03-02T08:18:36;23.60;;;10.90;;
5157;SDS011;2598;52.364;9.772;2024-03-02T08:21:02;19.43;;;9.17;;
5157;SDS011;2598;52.364;9.772;2024-03-02T08:23:28;22.60;;;10.37;;
5157;SDS011;2598;52.364;9.772;2024-03-02T08:25:55;16.20;;;8.50;;
5157;SDS011;2598;52.364;9.772;2024-03-02T08:28:21;19.97;;;9.10;;
5157;SDS011;2598;52.364;9.772;2024-03-02T08:30:47;18.93;;;9.40;;
5157;SDS011;2598;52.364;9.772;2024-03-02T08:33:13;18.97;;;9.67;;
5157;SDS011;2598;52.364;9.772;2024-03-02T08:35:39;18.77;;;9.37;;
5157;SDS011;2598;52.364;9.772;2024-03-02T08:38:05;29.93;;;9.50;;
5157;SDS011;2598;52.364;9.772;2024-03-02T08:40:31;18.00;;;8.10;;
5157;SDS011;2598;52.364;9.772;2024-03-02T08:42:57;22.87;;;9.50;;
5157;SDS011;2598;52.364;9.772;2024-03-02T08:45:23;19.03;;;8.10;;
5157;SDS011;2598;52.364;9.772;2024-03-02T08:47:49;16.73;;;8.60;;
5157;SDS011;2598;52.364;9.772;2024-03-02T08:50:15;16.10;;;7.70;;
5157;SDS011;2598;52.364;9.772;2024-03-02T08:52:41;15.33;;;8.03;;
5157;SDS011;2598;52.364;9.772;2024-03-02T08:55:08;14.60;;;8.00;;
5157;SDS011;2598;52.364;9.772;2024-03-02T08:57:36;17.57;;;8.73;;
5157;SDS011;2598;52.364;9.772;2024-03-02T09:00:02;20.10;;;8.33;;
5157;SDS011;2598;52.364;9.772;2024-03-02T09:02:30;22.70;;;8.70;;
5157;SDS011;2598;52.364;9.772;2024-03-02T09:04:56;18.93;;;8.80;;
5157;SDS011;2598;52.364;9.772;2024-03-02T09:07:22;19.60;;;8.50;;
5157;SDS011;2598;52.364;9.772;2024-03-02T09:09:47;21.10;;;9.43;;
5157;SDS011;2598;52.364;9.772;2024-03-02T09:12:13;16.27;;;8.17;;
5157;SDS011;2598;52.364;9.772;2024-03-02T09:14:40;16.63;;;8.00;;
5157;SDS011;2598;52.364;9.772;2024-03-02T09:17:06;17.73;;;7.87;;
5157;SDS011;2598;52.364;9.772;2024-03-02T09:19:33;16.27;;;7.70;;
5157;SDS011;2598;52.364;9.772;2024-03-02T09:21:59;17.83;;;7.43;;
5157;SDS011;2598;52.364;9.772;2024-03-02T09:24:26;16.83;;;7.90;;
5157;SDS011;2598;52.364;9.772;2024-03-02T09:26:52;16.67;;;7.90;;
5157;SDS011;2598;52.364;9.772;2024-03-02T09:29:19;17.33;;;7.70;;
5157;SDS011;2598;52.364;9.772;2024-03-02T09:31:45;16.73;;;6.80;;
5157;SDS011;2598;52.364;9.772;2024-03-02T09:34:12;13.10;;;6.37;;
5157;SDS011;2598;52.364;9.772;2024-03-02T09:36:39;14.00;;;7.07;;
5157;SDS011;2598;52.364;9.772;2024-03-02T09:39:07;15.20;;;7.43;;
5157;SDS011;2598;52.364;9.772;2024-03-02T09:41:34;15.43;;;7.57;;
5157;SDS011;2598;52.364;9.772;2024-03-02T09:44:00;14.23;;;6.40;;
5157;SDS011;2598;52.364;9.772;2024-03-02T09:46:27;15.50;;;7.17;;
5157;SDS011;2598;52.364;9.772;2024-03-02T09:48:53;14.50;;;7.30;;
5157;SDS011;2598;52.364;9.772;2024-03-02T09:51:19;15.37;;;7.00;;
5157;SDS011;2598;52.364;9.772;2024-03-02T09:53:45;15.13;;;6.67;;
5157;SDS011;2598;52.364;9.772;2024-03-02T09:56:13;14.67;;;6.50;;
5157;SDS011;2598;52.364;9.772;2024-03-02T09:58:40;12.20;;;6.60;;
5157;SDS011;2598;52.364;9.772;2024-03-02T10:01:07;13.63;;;5.90;;
5157;SDS011;2598;52.364;9.772;2024-03-02T10:03:35;14.00;;;6.67;;
5157;SDS011;2598;52.364;9.772;2024-03-02T10:08:46;12.83;;;6.83;;
5157;SDS011;2598;52.364;9.772;2024-03-02T10:11:25;15.70;;;6.27;;
5157;SDS011;2598;52.364;9.772;2024-03-02T10:14:03;18.53;;;6.80;;
5157;SDS011;2598;52.364;9.772;2024-03-02T10:16:30;17.37;;;7.33;;
5157;SDS011;2598;52.364;9.772;2024-03-02T10:18:56;13.13;;;6.17;;
5157;SDS011;2598;52.364;9.772;2024-03-02T10:21:22;13.27;;;6.90;;
5157;SDS011;2598;52.364;9.772;2024-03-02T10:23:50;12.57;;;6.77;;
5157;SDS011;2598;52.364;9.772;2024-03-02T10:26:17;15.97;;;6.37;;
5157;SDS011;2598;52.364;9.772;2024-03-02T10:28:46;15.57;;;7.37;;
5157;SDS011;2598;52.364;9.772;2024-03-02T10:31:23;14.20;;;6.50;;
5157;SDS011;2598;52.364;9.772;2024-03-02T10:33:52;14.03;;;6.90;;
5157;SDS011;2598;52.364;9.772;2024-03-02T10:36:18;15.90;;;7.17;;
5157;SDS011;2598;52.364;9.772;2024-03-02T10:38:45;13.90;;;6.27;;
5157;SDS011;2598;52.364;9.772;2024-03-02T10:41:12;12.37;;;6.13;;
5157;SDS011;2598;52.364;9.772;2024-03-02T10:43:42;13.10;;;5.90;;
5157;SDS011;2598;52.364;9.772;2024-03-02T10:46:09;12.73;;;5.60;;
5157;SDS011;2598;52.364;9.772;2024-03-02T10:48:35;11.67;;;5.80;;
5157;SDS011;2598;52.364;9.772;2024-03-02T10:51:02;13.00;;;5.47;;
5157;SDS011;2598;52.364;9.772;2024-03-02T10:53:28;11.80;;;5.97;;
5157;SDS011;2598;52.364;9.772;2024-03-02T10:55:57;13.03;;;5.67;;
5157;SDS011;2598;52.364;9.772;2024-03-02T10:58:28;14.40;;;5.53;;
5157;SDS011;2598;52.364;9.772;2024-03-02T11:00:57;13.57;;;6.10;;
5157;SDS011;2598;52.364;9.772;2024-03-02T11:03:25;11.50;;;5.27;;
5157;SDS011;2598;52.364;9.772;2024-03-02T11:05:51;12.53;;;5.40;;
5157;SDS011;2598;52.364;9.772;2024-03-02T11:08:17;12.23;;;5.40;;
5157;SDS011;2598;52.364;9.772;2024-03-02T11:10:50;9.30;;;4.60;;
5157;SDS011;2598;52.364;9.772;2024-03-02T11:13:19;12.80;;;4.10;;
5157;SDS011;2598;52.364;9.772;2024-03-02T11:15:46;9.90;;;4.20;;
5157;SDS011;2598;52.364;9.772;2024-03-02T11:18:12;10.27;;;4.33;;
5157;SDS011;2598;52.364;9.772;2024-03-02T11:20:39;11.80;;;4.53;;
5157;SDS011;2598;52.364;9.772;2024-03-02T11:23:06;9.50;;;4.40;;
5157;SDS011;2598;52.364;9.772;2024-03-02T11:25:32;7.80;;;4.20;;
5157;SDS011;2598;52.364;9.772;2024-03-02T11:27:59;9.63;;;4.00;;
5157;SDS011;2598;52.364;9.772;2024-03-02T11:33:00;9.73;;;3.93;;
5157;SDS011;2598;52.364;9.772;2024-03-02T11:35:32;8.63;;;3.83;;
5157;SDS011;2598;52.364;9.772;2024-03-02T11:37:58;8.73;;;3.80;;
5157;SDS011;2598;52.364;9.772;2024-03-02T11:40:24;8.70;;;4.10;;
5157;SDS011;2598;52.364;9.772;2024-03-02T11:42:51;8.40;;;3.90;;
5157;SDS011;2598;52.364;9.772;2024-03-02T11:45:17;10.20;;;4.63;;
5157;SDS011;2598;52.364;9.772;2024-03-02T11:47:49;8.97;;;4.20;;
5157;SDS011;2598;52.364;9.772;2024-03-02T11:50:15;10.00;;;3.83;;
5157;SDS011;2598;52.364;9.772;2024-03-02T11:52:41;8.60;;;4.17;;
5157;SDS011;2598;52.364;9.772;2024-03-02T11:55:08;7.13;;;3.37;;
5157;SDS011;2598;52.364;9.772;2024-03-02T11:57:35;8.63;;;3.63;;
5157;SDS011;2598;52.364;9.772;2024-03-02T12:00:01;13.37;;;4.43;;
5157;SDS011;2598;52.364;9.772;2024-03-02T12:02:28;10.67;;;4.30;;
5157;SDS011;2598;52.364;9.772;2024-03-02T12:04:54;8.03;;;3.47;;
5157;SDS011;2598;52.364;9.772;2024-03-02T12:07:22;9.83;;;4.30;;
5157;SDS011;2598;52.364;9.772;2024-03-02T12:09:48;6.20;;;3.00;;
5157;SDS011;2598;52.364;9.772;2024-03-02T12:12:15;7.77;;;3.30;;
5157;SDS011;2598;52.364;9.772;2024-03-02T12:14:49;8.40;;;3.50;;
5157;SDS011;2598;52.364;9.772;2024-03-02T12:17:16;7.63;;;3.47;;
5157;SDS011;2598;52.364;9.772;2024-03-02T12:19:42;6.70;;;2.90;;
5157;SDS011;2598;52.364;9.772;2024-03-02T12:22:07;8.47;;;3.30;;
5157;SDS011;2598;52.364;9.772;2024-03-02T12:24:33;9.13;;;3.37;;
5157;SDS011;2598;52.364;9.772;2024-03-02T12:26:59;5.93;;;2.83;;
5157;SDS011;2598;52.364;9.772;2024-03-02T12:29:26;6.53;;;3.20;;
5157;SDS011;2598;52.364;9.772;2024-03-02T12:31:52;6.13;;;2.83;;
5157;SDS011;2598;52.364;9.772;2024-03-02T12:34:18;6.97;;;3.20;;
5157;SDS011;2598;52.364;9.772;2024-03-02T12:36:45;5.53;;;2.40;;
5157;SDS011;2598;52.364;9.772;2024-03-02T12:39:14;5.80;;;2.50;;
5157;SDS011;2598;52.364;9.772;2024-03-02T12:41:40;7.00;;;2.97;;
5157;SDS011;2598;52.364;9.772;2024-03-02T12:44:07;9.50;;;2.60;;
5157;SDS011;2598;52.364;9.772;2024-03-02T12:46:33;7.73;;;2.50;;
5157;SDS011;2598;52.364;9.772;2024-03-02T12:51:57;5.67;;;2.40;;
5157;SDS011;2598;52.364;9.772;2024-03-02T12:54:23;6.83;;;2.73;;
5157;SDS011;2598;52.364;9.772;2024-03-02T12:56:50;5.90;;;2.50;;
5157;SDS011;2598;52.364;9.772;2024-03-02T12:59:19;7.20;;;2.33;;
5157;SDS011;2598;52.364;9.772;2024-03-02T13:01:52;6.30;;;2.90;;
5157;SDS011;2598;52.364;9.772;2024-03-02T13:04:25;5.33;;;2.33;;
5157;SDS011;2598;52.364;9.772;2024-03-02T13:06:53;7.60;;;3.40;;
5157;SDS011;2598;52.364;9.772;2024-03-02T13:09:19;8.20;;;2.40;;
5157;SDS011;2598;52.364;9.772;2024-03-02T13:11:45;6.63;;;2.60;;
5157;SDS011;2598;52.364;9.772;2024-03-02T13:14:11;7.13;;;2.90;;
5157;SDS011;2598;52.364;9.772;2024-03-02T13:16:38;6.17;;;2.50;;
5157;SDS011;2598;52.364;9.772;2024-03-02T13:19:07;6.07;;;2.40;;
5157;SDS011;2598;52.364;9.772;2024-03-02T13:21:33;7.33;;;3.03;;
5157;SDS011;2598;52.364;9.772;2024-03-02T13:23:59;5.47;;;2.57;;
5157;SDS011;2598;52.364;9.772;2024-03-02T13:26:25;6.00;;;3.07;;
5157;SDS011;2598;52.364;9.772;2024-03-02T13:28:51;7.10;;;3.00;;
5157;SDS011;2598;52.364;9.772;2024-03-02T13:31:17;9.13;;;3.10;;
5157;SDS011;2598;52.364;9.772;2024-03-02T13:33:43;6.27;;;2.47;;
5157;SDS011;2598;52.364;9.772;2024-03-02T13:36:09;4.43;;;2.07;;
5157;SDS011;2598;52.364;9.772;2024-03-02T13:38:35;5.60;;;2.20;;
5157;SDS011;2598;52.364;9.772;2024-03-02T13:41:01;4.23;;;2.00;;
5157;SDS011;2598;52.364;9.772;2024-03-02T13:43:27;6.97;;;2.23;;
5157;SDS011;2598;52.364;9.772;2024-03-02T13:45:56;5.93;;;2.70;;
5157;SDS011;2598;52.364;9.772;2024-03-02T13:48:23;4.80;;;2.03;;
5157;SDS011;2598;52.364;9.772;2024-03-02T13:50:51;4.30;;;1.83;;
5157;SDS011;2598;52.364;9.772;2024-03-02T13:53:17;7.27;;;2.60;;
5157;SDS011;2598;52.364;9.772;2024-03-02T13:55:44;6.10;;;2.00;;
5157;SDS011;2598;52.364;9.772;2024-03-02T13:58:09;5.83;;;2.57;;
5157;SDS011;2598;52.364;9.772;2024-03-02T14:00:36;5.60;;;2.07;;
5157;SDS011;2598;52.364;9.772;2024-03-02T14:03:03;5.80;;;2.40;;
5157;SDS011;2598;52.364;9.772;2024-03-02T14:05:30;5.20;;;2.13;;
5157;SDS011;2598;52.364;9.772;2024-03-02T14:07:56;6.47;;;2.57;;
5157;SDS011;2598;52.364;9.772;2024-03-02T14:10:21;6.13;;;2.80;;
5157;SDS011;2598;52.364;9.772;2024-03-02T14:12:48;5.53;;;2.10;;
5157;SDS011;2598;52.364;9.772;2024-03-02T14:15:14;4.60;;;2.10;;
5157;SDS011;2598;52.364;9.772;2024-03-02T14:17:40;5.63;;;2.23;;
5157;SDS011;2598;52.364;9.772;2024-03-02T14:20:07;6.20;;;2.00;;
5157;SDS011;2598;52.364;9.772;2024-03-02T14:22:35;5.33;;;1.93;;
5157;SDS011;2598;52.364;9.772;2024-03-02T14:25:02;5.80;;;2.60;;
5157;SDS011;2598;52.364;9.772;2024-03-02T14:27:28;6.73;;;2.10;;
5157;SDS011;2598;52.364;9.772;2024-03-02T14:29:54;6.63;;;2.27;;
5157;SDS011;2598;52.364;9.772;2024-03-02T14:32:20;5.87;;;2.40;;
5157;SDS011;2598;52.364;9.772;2024-03-02T14:34:46;4.57;;;1.90;;
5157;SDS011;2598;52.364;9.772;2024-03-02T14:37:13;5.20;;;1.93;;
5157;SDS011;2598;52.364;9.772;2024-03-02T14:39:39;6.53;;;1.77;;
5157;SDS011;2598;52.364;9.772;2024-03-02T14:42:05;7.73;;;2.40;;
5157;SDS011;2598;52.364;9.772;2024-03-02T14:44:31;5.10;;;2.20;;
5157;SDS011;2598;52.364;9.772;2024-03-02T14:46:59;7.67;;;2.40;;
5157;SDS011;2598;52.364;9.772;2024-03-02T14:49:25;7.00;;;2.17;;
5157;SDS011;2598;52.364;9.772;2024-03-02T14:51:51;6.70;;;2.03;;
5157;SDS011;2598;52.364;9.772;2024-03-02T14:54:17;6.00;;;2.30;;
5157;SDS011;2598;52.364;9.772;2024-03-02T14:56:43;4.83;;;2.33;;
5157;SDS011;2598;52.364;9.772;2024-03-02T14:59:09;6.53;;;2.97;;
5157;SDS011;2598;52.364;9.772;2024-03-02T15:01:35;6.77;;;2.27;;
5157;SDS011;2598;52.364;9.772;2024-03-02T15:04:01;7.00;;;2.40;;
5157;SDS011;2598;52.364;9.772;2024-03-02T15:06:27;6.00;;;2.23;;
5157;SDS011;2598;52.364;9.772;2024-03-02T15:08:53;6.90;;;2.70;;